Time;durP1;ratioP1;P1;durP2;ratioP2;P2;SDS_P1;SDS_P2;PMS_P1;PMS_P2;Temp;Humidity;BMP_temperature;BMP_pressure;BME280_temperature;BME280_humidity;BME280_pressure;Samples;Min_cycle;Max_cycle;Signal;HPM_P1;HPM_P2
2022/11/05 00:09:49;;;;;;;;;;;;;;;;;;5042024;28;19927;-60
2022/11/05 00:17:42;;;;;;;;;;;;;;;;;;5048542;28;19963;-60
2022/11/05 00:20:07;;;;;;;;;;;;;;;;;;5046592;28;20385;-60
2022/11/05 00:25:18;;;;;;;;;;;;;;;;;;5046283;28;20391;-61
2022/11/05 00:27:44;;;;;;;;;;;;;;;;;;5047465;28;20365;-60
2022/11/05 00:30:09;;;;;;;;;;;;;;;;;;5042573;28;19916;-60
2022/11/05 00:32:35;;;;;;;;;;;;;;;;;;5046992;28;19985;-61
2022/11/05 00:35:00;;;;;;;;;;;;;;;;;;5047680;28;19917;-60
2022/11/05 00:37:25;;;;;;;;;;;;;;;;;;5046354;28;19917;-60
2022/11/05 00:39:50;;;;;;;;;;;;;;;;;;5048769;28;20191;-60
2022/11/05 00:44:59;;;;;;;;;;;;;;;;;;5047602;28;20369;-61
2022/11/05 00:50:09;;;;;;;;;;;;;;;;;;5042220;28;19944;-60
2022/11/05 00:55:18;;;;;;;;;;;;;;;;;;5044348;28;19924;-60
2022/11/05 00:57:44;;;;;;;;;;;;;;;;;;5042190;28;19917;-62
2022/11/05 01:00:10;;;;;;;;;;;;;;;;;;5042117;28;20000;-62
2022/11/05 01:02:35;;;;;;;;;;;;;;;;;;5042630;28;20035;-62
2022/11/05 01:05:00;;;;;;;;;;;;;;;;;;5042094;28;20015;-60
2022/11/05 01:07:25;;;;;;;;;;;;;;;;;;5041848;28;19917;-63
2022/11/05 01:09:50;;;;;;;;;;;;;;;;;;5042611;28;19943;-60
2022/11/05 01:12:15;;;;;;;;;;;;;;;;;;5043251;28;19951;-61
2022/11/05 01:14:41;;;;;;;;;;;;;;;;;;5040494;28;19928;-60
2022/11/05 01:17:06;;;;;;;;;;;;;;;;;;5045342;28;19936;-60
2022/11/05 01:19:31;;;;;;;;;;;;;;;;;;5044021;28;19975;-61
2022/11/05 01:21:56;;;;;;;;;;;;;;;;;;5044999;28;19921;-60
2022/11/05 01:24:22;;;;;;;;;;;;;;;;;;5040283;28;19924;-60
2022/11/05 01:26:47;;;;;;;;;;;;;;;;;;5046498;28;19932;-60
2022/11/05 01:29:12;;;;;;;;;;;;;;;;;;5044976;28;20276;-60
2022/11/05 01:31:37;;;;;;;;;;;;;;;;;;5046992;28;20011;-60
2022/11/05 01:34:02;;;;;;;;;;;;;;;;;;5043337;28;19964;-61
2022/11/05 01:36:28;;;;;;;;;;;;;;;;;;5045469;28;19974;-61
2022/11/05 01:38:53;;;;;;;;;;;;;;;;;;5046831;28;19975;-60
2022/11/05 01:41:18;;;;;;;;;;;;;;;;;;5036025;28;19963;-60
2022/11/05 01:43:43;;;;;;;;;;;;;;;;;;5046701;28;20344;-60
2022/11/05 01:46:08;;;;;;;;;;;;;;;;;;5044654;28;19944;-60
2022/11/05 01:48:33;;;;;;;;;;;;;;;;;;5042803;28;19921;-60
2022/11/05 01:50:59;;;;;;;;;;;;;;;;;;5042638;28;19920;-60
2022/11/05 01:53:24;;;;;;;;;;;;;;;;;;5046582;28;19921;-60
2022/11/05 01:55:49;;;;;;;;;;;;;;;;;;5044326;28;20336;-60
2022/11/05 01:58:14;;;;;;;;;;;;;;;;;;5041974;28;19917;-59
2022/11/05 02:00:39;;;;;;;;;;;;;;;;;;5043800;28;20444;-60
2022/11/05 02:03:05;;;;;;;;;;;;;;;;;;5046524;28;20423;-60
2022/11/05 02:05:30;;;;;;;;;;;;;;;;;;5041095;28;19917;-59
2022/11/05 02:07:55;;;;;;;;;;;;;;;;;;5043350;28;19916;-59
2022/11/05 02:10:20;;;;;;;;;;;;;;;;;;5044783;28;19921;-61
2022/11/05 02:12:46;;;;;;;;;;;;;;;;;;5045748;28;20369;-60
2022/11/05 02:15:11;;;;;;;;;;;;;;;;;;5041276;28;19917;-61
2022/11/05 02:17:36;;;;;;;;;;;;;;;;;;5044340;28;19917;-60
2022/11/05 02:20:01;;;;;;;;;;;;;;;;;;5043914;28;19974;-60
2022/11/05 02:22:27;;;;;;;;;;;;;;;;;;5045821;28;19925;-61
2022/11/05 02:24:52;;;;;;;;;;;;;;;;;;5039272;28;19940;-60
2022/11/05 02:27:17;;;;;;;;;;;;;;;;;;5045438;28;19940;-60
2022/11/05 02:29:42;;;;;;;;;;;;;;;;;;5042598;28;19916;-60
2022/11/05 02:32:08;;;;;;;;;;;;;;;;;;5044588;28;20017;-60
2022/11/05 02:34:33;;;;;;;;;;;;;;;;;;5044372;28;19921;-61
2022/11/05 02:36:58;;;;;;;;;;;;;;;;;;5043002;28;19928;-60
2022/11/05 02:39:23;;;;;;;;;;;;;;;;;;5039401;28;19944;-61
2022/11/05 02:41:48;;;;;;;;;;;;;;;;;;5036262;28;19940;-60
2022/11/05 02:44:13;;;;;;;;;;;;;;;;;;5040569;28;19921;-60
2022/11/05 02:46:39;;;;;;;;;;;;;;;;;;5042061;28;20000;-60
2022/11/05 02:49:04;;;;;;;;;;;;;;;;;;5042985;28;19948;-60
2022/11/05 02:51:29;;;;;;;;;;;;;;;;;;5040426;28;19927;-60
2022/11/05 02:53:55;;;;;;;;;;;;;;;;;;5041265;28;19920;-59
2022/11/05 02:56:20;;;;;;;;;;;;;;;;;;5044857;28;19939;-60
2022/11/05 02:58:45;;;;;;;;;;;;;;;;;;5043990;28;19916;-60
2022/11/05 03:01:10;;;;;;;;;;;;;;;;;;5040595;28;19999;-60
2022/11/05 03:03:35;;;;;;;;;;;;;;;;;;5040360;28;19920;-60
2022/11/05 03:06:01;;;;;;;;;;;;;;;;;;5040784;28;19927;-60
2022/11/05 03:08:26;;;;;;;;;;;;;;;;;;5044928;28;19943;-60
2022/11/05 03:10:51;;;;;;;;;;;;;;;;;;5041695;28;19925;-60
2022/11/05 03:13:16;;;;;;;;;;;;;;;;;;5045387;28;20407;-60
2022/11/05 03:15:41;;;;;;;;;;;;;;;;;;5044331;28;19921;-60
2022/11/05 03:18:06;;;;;;;;;;;;;;;;;;5043771;28;19924;-61
2022/11/05 03:20:32;;;;;;;;;;;;;;;;;;5040305;28;20043;-60
2022/11/05 03:22:57;;;;;;;;;;;;;;;;;;5039411;28;20408;-60
2022/11/05 03:25:22;;;;;;;;;;;;;;;;;;5042688;28;19917;-61
2022/11/05 03:27:47;;;;;;;;;;;;;;;;;;5042697;28;19916;-60
2022/11/05 03:30:12;;;;;;;;;;;;;;;;;;5038992;28;19966;-60
2022/11/05 03:32:38;;;;;;;;;;;;;;;;;;5043535;28;19921;-60
2022/11/05 03:35:03;;;;;;;;;;;;;;;;;;5043735;28;19917;-60
2022/11/05 03:37:28;;;;;;;;;;;;;;;;;;5041228;28;20446;-60
2022/11/05 03:39:53;;;;;;;;;;;;;;;;;;5043944;28;20469;-60
2022/11/05 03:42:18;;;;;;;;;;;;;;;;;;5036713;28;19917;-61
2022/11/05 03:44:44;;;;;;;;;;;;;;;;;;5043109;28;19920;-61
2022/11/05 03:47:09;;;;;;;;;;;;;;;;;;5043920;28;20700;-61
2022/11/05 03:49:34;;;;;;;;;;;;;;;;;;5042026;28;20340;-60
2022/11/05 03:51:59;;;;;;;;;;;;;;;;;;5037426;28;20506;-60
2022/11/05 03:54:24;;;;;;;;;;;;;;;;;;5041552;28;20340;-61
2022/11/05 03:56:50;;;;;;;;;;;;;;;;;;5041886;28;19917;-61
2022/11/05 03:59:15;;;;;;;;;;;;;;;;;;5043365;28;19991;-61
2022/11/05 04:01:40;;;;;;;;;;;;;;;;;;5041853;28;19916;-60
2022/11/05 04:04:05;;;;;;;;;;;;;;;;;;5038954;28;20365;-61
2022/11/05 04:14:42;;;;;;;;;;;;;;;;;;5042254;28;19923;-61
2022/11/05 04:17:11;;;;;;;;;;;;;;;;;;5043872;28;19917;-60
2022/11/05 04:25:03;;;;;;;;;;;;;;;;;;5045461;28;19916;-61
2022/11/05 04:27:29;;;;;;;;;;;;;;;;;;5045119;28;20285;-59
2022/11/05 04:32:38;;;;;;;;;;;;;;;;;;5044080;28;19944;-60
2022/11/05 04:35:03;;;;;;;;;;;;;;;;;;5041486;28;20285;-60
2022/11/05 04:37:28;;;;;;;;;;;;;;;;;;5046015;28;19948;-60
2022/11/05 04:39:53;;;;;;;;;;;;;;;;;;5045584;28;19936;-62
2022/11/05 04:42:18;;;;;;;;;;;;;;;;;;5045908;28;20708;-62
2022/11/05 04:44:43;;;;;;;;;;;;;;;;;;5045284;28;19921;-62
2022/11/05 04:47:09;;;;;;;;;;;;;;;;;;5045855;28;20329;-62
2022/11/05 04:49:34;;;;;;;;;;;;;;;;;;5048471;28;19966;-63
2022/11/05 04:51:59;;;;;;;;;;;;;;;;;;5046255;28;19925;-62
2022/11/05 04:54:24;;;;;;;;;;;;;;;;;;5045246;28;20445;-61
2022/11/05 04:56:49;;;;;;;;;;;;;;;;;;5046724;28;19980;-62
2022/11/05 04:59:15;;;;;;;;;;;;;;;;;;5046251;28;20027;-62
2022/11/05 05:01:40;;;;;;;;;;;;;;;;;;5044046;28;19913;-62
2022/11/05 05:04:05;;;;;;;;;;;;;;;;;;5040419;28;20302;-62
2022/11/05 05:06:30;;;;;;;;;;;;;;;;;;5044331;28;20003;-62
2022/11/05 05:08:55;;;;;;;;;;;;;;;;;;5039818;28;19917;-62
2022/11/05 05:11:21;;;;;;;;;;;;;;;;;;5020730;28;19936;-62
2022/11/05 05:13:46;;;;;;;;;;;;;;;;;;5045960;28;19917;-62
2022/11/05 05:16:11;;;;;;;;;;;;;;;;;;5045317;28;20161;-62
2022/11/05 05:18:36;;;;;;;;;;;;;;;;;;5045374;28;19916;-62
2022/11/05 05:23:46;;;;;;;;;;;;;;;;;;5042296;28;19917;-61
2022/11/05 05:26:11;;;;;;;;;;;;;;;;;;5042001;28;19921;-61
2022/11/05 05:28:36;;;;;;;;;;;;;;;;;;5044147;28;19924;-61
2022/11/05 05:31:01;;;;;;;;;;;;;;;;;;5046275;28;20031;-61
2022/11/05 05:33:26;;;;;;;;;;;;;;;;;;5041033;28;19920;-64
2022/11/05 05:35:52;;;;;;;;;;;;;;;;;;5046435;28;20364;-62
2022/11/05 05:38:17;;;;;;;;;;;;;;;;;;5045127;28;19916;-61
2022/11/05 05:40:42;;;;;;;;;;;;;;;;;;5043042;28;19917;-62
2022/11/05 05:43:07;;;;;;;;;;;;;;;;;;5045311;28;20344;-61
2022/11/05 05:45:32;;;;;;;;;;;;;;;;;;5042703;28;20460;-62
2022/11/05 05:47:57;;;;;;;;;;;;;;;;;;5041376;28;20015;-61
2022/11/05 05:50:23;;;;;;;;;;;;;;;;;;5045681;28;19921;-61
2022/11/05 05:52:50;;;;;;;;;;;;;;;;;;5046284;28;20381;-61
2022/11/05 05:55:15;;;;;;;;;;;;;;;;;;5045310;28;20373;-61
2022/11/05 05:57:40;;;;;;;;;;;;;;;;;;5041050;28;20062;-61
2022/11/05 06:00:06;;;;;;;;;;;;;;;;;;5046029;28;19939;-61
2022/11/05 06:02:36;;;;;;;;;;;;;;;;;;5038675;28;19916;-61
2022/11/05 06:05:01;;;;;;;;;;;;;;;;;;5045133;28;20366;-61
2022/11/05 06:07:27;;;;;;;;;;;;;;;;;;5040498;28;19944;-62
2022/11/05 06:09:52;;;;;;;;;;;;;;;;;;5044475;28;19917;-61
2022/11/05 06:12:17;;;;;;;;;;;;;;;;;;5044020;28;19928;-61
2022/11/05 06:14:42;;;;;;;;;;;;;;;;;;5043137;28;20210;-60
2022/11/05 06:17:07;;;;;;;;;;;;;;;;;;5046898;28;19971;-60
2022/11/05 06:19:32;;;;;;;;;;;;;;;;;;5045941;28;19916;-61
2022/11/05 06:21:58;;;;;;;;;;;;;;;;;;5044832;28;19916;-60
2022/11/05 06:24:23;;;;;;;;;;;;;;;;;;5041098;28;20283;-61
2022/11/05 06:26:48;;;;;;;;;;;;;;;;;;5045504;28;19966;-60
2022/11/05 06:29:13;;;;;;;;;;;;;;;;;;5045537;28;19924;-61
2022/11/05 06:31:38;;;;;;;;;;;;;;;;;;5046939;28;19971;-60
2022/11/05 06:34:04;;;;;;;;;;;;;;;;;;5044104;28;20319;-61
2022/11/05 06:36:29;;;;;;;;;;;;;;;;;;5038090;28;20042;-60
2022/11/05 06:38:54;;;;;;;;;;;;;;;;;;5043732;28;19925;-61
2022/11/05 06:41:19;;;;;;;;;;;;;;;;;;5045315;28;19916;-60
2022/11/05 06:43:44;;;;;;;;;;;;;;;;;;5043345;28;20371;-61
2022/11/05 06:46:10;;;;;;;;;;;;;;;;;;5039059;28;19916;-61
2022/11/05 06:48:35;;;;;;;;;;;;;;;;;;5041046;28;19921;-60
2022/11/05 06:51:00;;;;;;;;;;;;;;;;;;5042881;28;20014;-60
2022/11/05 06:53:25;;;;;;;;;;;;;;;;;;5042430;28;19924;-60
2022/11/05 06:55:51;;;;;;;;;;;;;;;;;;5022587;28;20043;-61
2022/11/05 06:58:16;;;;;;;;;;;;;;;;;;5042875;28;20226;-61
2022/11/05 07:00:41;;;;;;;;;;;;;;;;;;5043135;28;20279;-60
2022/11/05 07:03:06;;;;;;;;;;;;;;;;;;5040708;28;20412;-61
2022/11/05 07:05:32;;;;;;;;;;;;;;;;;;5042907;28;19921;-60
2022/11/05 07:07:57;;;;;;;;;;;;;;;;;;5042706;28;19942;-60
2022/11/05 07:10:22;;;;;;;;;;;;;;;;;;5041721;28;19921;-61
2022/11/05 07:12:47;;;;;;;;;;;;;;;;;;5034836;28;20510;-60
2022/11/05 07:15:12;;;;;;;;;;;;;;;;;;5027039;28;20330;-61
2022/11/05 07:17:38;;;;;;;;;;;;;;;;;;5038053;28;19917;-60
2022/11/05 07:20:03;;;;;;;;;;;;;;;;;;5032682;28;19956;-61
2022/11/05 07:22:28;;;;;;;;;;;;;;;;;;5037480;28;20360;-60
2022/11/05 07:24:53;;;;;;;;;;;;;;;;;;5030960;28;20337;-61
2022/11/05 07:27:18;;;;;;;;;;;;;;;;;;5030423;28;19927;-62
2022/11/05 07:29:44;;;;;;;;;;;;;;;;;;5042854;28;19917;-60
2022/11/05 07:32:09;;;;;;;;;;;;;;;;;;5032952;28;20415;-61
2022/11/05 07:34:34;;;;;;;;;;;;;;;;;;5041090;28;19920;-60
2022/11/05 07:36:59;;;;;;;;;;;;;;;;;;5036205;28;19916;-60
2022/11/05 07:39:24;;;;;;;;;;;;;;;;;;5033390;28;20363;-61
2022/11/05 07:41:50;;;;;;;;;;;;;;;;;;5043418;28;19917;-60
2022/11/05 07:44:16;;;;;;;;;;;;;;;;;;5034686;28;20326;-62
2022/11/05 07:46:41;;;;;;;;;;;;;;;;;;5041040;28;19935;-62
2022/11/05 07:49:06;;;;;;;;;;;;;;;;;;5033108;28;20298;-60
2022/11/05 07:51:31;;;;;;;;;;;;;;;;;;5036667;28;20339;-59
2022/11/05 07:53:57;;;;;;;;;;;;;;;;;;5041967;28;19917;-60
2022/11/05 07:56:22;;;;;;;;;;;;;;;;;;5035432;28;20003;-60
2022/11/05 07:58:47;;;;;;;;;;;;;;;;;;5040612;28;19917;-61
2022/11/05 08:01:12;;;;;;;;;;;;;;;;;;4994791;28;20083;-60
2022/11/05 08:03:38;;;;;;;;;;;;;;;;;;4980331;28;19926;-60
2022/11/05 08:06:03;;;;;;;;;;;;;;;;;;4986349;28;20253;-60
2022/11/05 08:08:28;;;;;;;;;;;;;;;;;;4975422;28;20345;-60
2022/11/05 08:10:53;;;;;;;;;;;;;;;;;;4983649;28;19926;-61
2022/11/05 08:13:18;;;;;;;;;;;;;;;;;;4980723;28;20427;-60
2022/11/05 08:15:44;;;;;;;;;;;;;;;;;;4976926;28;19917;-60
2022/11/05 08:18:09;;;;;;;;;;;;;;;;;;4984604;28;20266;-60
2022/11/05 08:20:34;;;;;;;;;;;;;;;;;;4974364;28;19929;-60
2022/11/05 08:22:59;;;;;;;;;;;;;;;;;;4983026;28;19924;-59
2022/11/05 08:25:24;;;;;;;;;;;;;;;;;;4975018;28;19918;-60
2022/11/05 08:27:50;;;;;;;;;;;;;;;;;;4980225;28;20017;-60
2022/11/05 08:30:15;;;;;;;;;;;;;;;;;;4984806;28;19926;-60
2022/11/05 08:32:40;;;;;;;;;;;;;;;;;;4977290;28;19921;-60
2022/11/05 08:35:05;;;;;;;;;;;;;;;;;;4983166;28;19925;-59
2022/11/05 08:37:30;;;;;;;;;;;;;;;;;;4974702;28;20294;-61
2022/11/05 08:39:55;;;;;;;;;;;;;;;;;;4971253;28;19922;-62
2022/11/05 08:42:21;;;;;;;;;;;;;;;;;;4984084;28;20009;-61
2022/11/05 08:44:46;;;;;;;;;;;;;;;;;;4975213;28;20413;-61
2022/11/05 08:47:11;;;;;;;;;;;;;;;;;;4981387;28;19922;-61
2022/11/05 08:49:36;;;;;;;;;;;;;;;;;;4972917;28;20306;-61
2022/11/05 08:52:01;;;;;;;;;;;;;;;;;;4977312;28;19937;-61
2022/11/05 08:54:27;;;;;;;;;;;;;;;;;;4982355;28;19918;-61
2022/11/05 08:56:52;;;;;;;;;;;;;;;;;;4973186;28;20037;-62
2022/11/05 08:59:17;;;;;;;;;;;;;;;;;;4981183;28;19914;-62
2022/11/05 09:01:42;;;;;;;;;;;;;;;;;;4974286;28;19992;-63
2022/11/05 09:04:08;;;;;;;;;;;;;;;;;;4975546;28;20025;-63
2022/11/05 09:06:33;;;;;;;;;;;;;;;;;;4984152;28;19964;-63
2022/11/05 09:08:58;;;;;;;;;;;;;;;;;;4975887;28;19918;-62
2022/11/05 09:11:23;;;;;;;;;;;;;;;;;;4982129;28;19925;-62
2022/11/05 09:13:48;;;;;;;;;;;;;;;;;;4975622;28;19922;-62
2022/11/05 09:16:14;;;;;;;;;;;;;;;;;;4977920;28;20316;-62
2022/11/05 09:18:41;;;;;;;;;;;;;;;;;;4981323;28;19928;-62
2022/11/05 09:21:06;;;;;;;;;;;;;;;;;;4975113;28;19959;-62
2022/11/05 09:23:31;;;;;;;;;;;;;;;;;;4981027;28;19922;-63
2022/11/05 09:25:56;;;;;;;;;;;;;;;;;;4978015;28;20401;-64
2022/11/05 09:28:23;;;;;;;;;;;;;;;;;;4975771;28;19921;-62
2022/11/05 09:30:48;;;;;;;;;;;;;;;;;;4981096;28;19926;-62
2022/11/05 09:33:13;;;;;;;;;;;;;;;;;;4974142;28;19929;-62
2022/11/05 09:35:38;;;;;;;;;;;;;;;;;;4977977;28;20399;-62
2022/11/05 09:38:04;;;;;;;;;;;;;;;;;;4979810;28;19917;-62
2022/11/05 09:40:29;;;;;;;;;;;;;;;;;;4974671;28;20371;-62
2022/11/05 09:42:55;;;;;;;;;;;;;;;;;;4982598;28;19925;-62
2022/11/05 09:45:20;;;;;;;;;;;;;;;;;;4976110;28;19917;-62
2022/11/05 09:47:45;;;;;;;;;;;;;;;;;;4980064;28;19992;-63
2022/11/05 09:50:10;;;;;;;;;;;;;;;;;;4979141;28;19961;-62
2022/11/05 09:52:35;;;;;;;;;;;;;;;;;;4977586;28;19966;-62
2022/11/05 09:55:01;;;;;;;;;;;;;;;;;;4985825;28;20395;-62
2022/11/05 09:57:26;;;;;;;;;;;;;;;;;;4975244;28;19918;-62
2022/11/05 09:59:51;;;;;;;;;;;;;;;;;;4980981;28;19920;-63
2022/11/05 10:02:17;;;;;;;;;;;;;;;;;;4976106;28;20602;-62
2022/11/05 10:04:42;;;;;;;;;;;;;;;;;;4986751;28;19924;-63
2022/11/05 10:07:07;;;;;;;;;;;;;;;;;;4980773;28;19944;-62
2022/11/05 10:09:32;;;;;;;;;;;;;;;;;;4975845;28;19917;-60
2022/11/05 10:11:57;;;;;;;;;;;;;;;;;;4973020;28;19945;-63
2022/11/05 10:14:23;;;;;;;;;;;;;;;;;;4976726;28;20385;-62
2022/11/05 10:16:48;;;;;;;;;;;;;;;;;;4970077;28;20175;-63
2022/11/05 10:19:13;;;;;;;;;;;;;;;;;;4978609;28;19926;-62
2022/11/05 10:21:38;;;;;;;;;;;;;;;;;;4972991;28;19921;-62
2022/11/05 10:24:07;;;;;;;;;;;;;;;;;;4976320;28;19917;-63
2022/11/05 10:26:32;;;;;;;;;;;;;;;;;;4980494;28;19936;-63
2022/11/05 10:28:57;;;;;;;;;;;;;;;;;;4973875;28;19975;-62
2022/11/05 10:31:22;;;;;;;;;;;;;;;;;;4967341;28;19921;-62
2022/11/05 10:33:48;;;;;;;;;;;;;;;;;;4973858;28;20213;-62
2022/11/05 10:36:13;;;;;;;;;;;;;;;;;;4969257;28;20369;-62
2022/11/05 10:38:38;;;;;;;;;;;;;;;;;;4982576;28;20020;-63
2022/11/05 10:41:03;;;;;;;;;;;;;;;;;;4968419;28;19924;-63
2022/11/05 10:43:28;;;;;;;;;;;;;;;;;;4977163;28;19918;-63
2022/11/05 10:45:54;;;;;;;;;;;;;;;;;;4975379;28;20413;-63
2022/11/05 10:48:19;;;;;;;;;;;;;;;;;;4971137;28;19918;-63
2022/11/05 10:50:44;;;;;;;;;;;;;;;;;;4976675;28;19926;-63
2022/11/05 10:53:09;;;;;;;;;;;;;;;;;;4973141;28;20499;-63
2022/11/05 10:55:34;;;;;;;;;;;;;;;;;;4979374;28;19921;-63
2022/11/05 10:58:00;;;;;;;;;;;;;;;;;;4973015;28;19964;-62
2022/11/05 11:00:25;;;;;;;;;;;;;;;;;;4972636;28;19921;-62
2022/11/05 11:02:50;;;;;;;;;;;;;;;;;;4975104;28;19924;-62
2022/11/05 11:05:15;;;;;;;;;;;;;;;;;;4972168;28;19929;-62
2022/11/05 11:07:40;;;;;;;;;;;;;;;;;;4977692;28;19922;-62
2022/11/05 11:10:06;;;;;;;;;;;;;;;;;;4971934;28;20194;-62
2022/11/05 11:12:31;;;;;;;;;;;;;;;;;;4972052;28;19925;-62
2022/11/05 11:14:56;;;;;;;;;;;;;;;;;;4978232;28;20007;-62
2022/11/05 11:17:21;;;;;;;;;;;;;;;;;;4971928;28;19917;-62
2022/11/05 11:19:47;;;;;;;;;;;;;;;;;;4975393;28;20324;-62
2022/11/05 11:22:12;;;;;;;;;;;;;;;;;;4972100;28;20032;-62
2022/11/05 11:24:37;;;;;;;;;;;;;;;;;;4976863;28;19918;-62
2022/11/05 11:27:02;;;;;;;;;;;;;;;;;;4976970;28;19918;-62
2022/11/05 11:29:28;;;;;;;;;;;;;;;;;;4972743;28;20331;-62
2022/11/05 11:31:53;;;;;;;;;;;;;;;;;;4978433;28;19928;-62
2022/11/05 11:34:18;;;;;;;;;;;;;;;;;;4972238;28;19922;-62
2022/11/05 11:36:43;;;;;;;;;;;;;;;;;;4973101;28;19926;-62
2022/11/05 11:39:08;;;;;;;;;;;;;;;;;;4979869;28;20284;-62
2022/11/05 11:41:34;;;;;;;;;;;;;;;;;;4972875;28;19972;-62
2022/11/05 11:43:59;;;;;;;;;;;;;;;;;;4980996;28;19918;-62
2022/11/05 11:46:24;;;;;;;;;;;;;;;;;;4974143;28;20310;-62
2022/11/05 11:48:49;;;;;;;;;;;;;;;;;;4972348;28;19957;-62
2022/11/05 11:51:14;;;;;;;;;;;;;;;;;;4976726;28;20375;-62
2022/11/05 11:53:40;;;;;;;;;;;;;;;;;;4969418;28;19926;-63
2022/11/05 11:56:05;;;;;;;;;;;;;;;;;;4979987;28;19937;-62
2022/11/05 11:58:30;;;;;;;;;;;;;;;;;;4990198;28;19946;-63
2022/11/05 12:00:55;;;;;;;;;;;;;;;;;;4971761;28;19978;-62
2022/11/05 12:03:20;;;;;;;;;;;;;;;;;;4976733;28;19922;-63
2022/11/05 12:05:46;;;;;;;;;;;;;;;;;;4976833;28;19918;-61
2022/11/05 12:08:11;;;;;;;;;;;;;;;;;;4982957;28;19917;-61
2022/11/05 12:10:36;;;;;;;;;;;;;;;;;;4979425;28;19926;-62
2022/11/05 12:13:01;;;;;;;;;;;;;;;;;;4981575;28;19918;-62
2022/11/05 12:15:26;;;;;;;;;;;;;;;;;;4979697;28;19918;-63
2022/11/05 12:17:52;;;;;;;;;;;;;;;;;;4980317;28;19926;-62
2022/11/05 12:20:17;;;;;;;;;;;;;;;;;;4981610;28;20338;-62
2022/11/05 12:22:42;;;;;;;;;;;;;;;;;;4980235;28;19918;-62
2022/11/05 12:25:07;;;;;;;;;;;;;;;;;;4983413;28;20304;-63
2022/11/05 12:27:32;;;;;;;;;;;;;;;;;;4981408;28;20037;-62
2022/11/05 12:29:58;;;;;;;;;;;;;;;;;;4978344;28;19965;-62
2022/11/05 12:32:23;;;;;;;;;;;;;;;;;;4979810;28;19926;-63
2022/11/05 12:34:48;;;;;;;;;;;;;;;;;;4982788;28;20371;-62
2022/11/05 12:37:13;;;;;;;;;;;;;;;;;;4979836;28;20036;-62
2022/11/05 12:39:38;;;;;;;;;;;;;;;;;;4979016;28;20095;-62
2022/11/05 12:42:04;;;;;;;;;;;;;;;;;;4980651;28;19941;-62
2022/11/05 12:44:29;;;;;;;;;;;;;;;;;;4981583;28;19925;-62
2022/11/05 12:46:54;;;;;;;;;;;;;;;;;;4999287;28;20004;-62
2022/11/05 12:49:19;;;;;;;;;;;;;;;;;;4982431;28;19953;-63
2022/11/05 12:51:44;;;;;;;;;;;;;;;;;;4980770;28;20020;-63
2022/11/05 12:54:09;;;;;;;;;;;;;;;;;;5002833;28;20036;-63
2022/11/05 12:56:35;;;;;;;;;;;;;;;;;;4983164;28;20330;-63
2022/11/05 12:59:00;;;;;;;;;;;;;;;;;;4981763;28;20016;-62
2022/11/05 13:01:25;;;;;;;;;;;;;;;;;;4982953;28;19929;-63
2022/11/05 13:03:50;;;;;;;;;;;;;;;;;;4982076;28;19918;-62
2022/11/05 13:06:15;;;;;;;;;;;;;;;;;;4986107;28;20377;-63
2022/11/05 13:08:41;;;;;;;;;;;;;;;;;;4984872;28;19921;-61
2022/11/05 13:11:06;;;;;;;;;;;;;;;;;;4982049;28;19930;-62
2022/11/05 13:13:31;;;;;;;;;;;;;;;;;;4983043;28;20035;-63
2022/11/05 13:15:56;;;;;;;;;;;;;;;;;;4982509;28;20424;-62
2022/11/05 13:18:21;;;;;;;;;;;;;;;;;;4979078;28;19917;-62
2022/11/05 13:20:46;;;;;;;;;;;;;;;;;;4986365;28;20365;-61
2022/11/05 13:23:12;;;;;;;;;;;;;;;;;;4984650;28;19918;-62
2022/11/05 13:25:37;;;;;;;;;;;;;;;;;;4986206;28;19918;-62
2022/11/05 13:28:02;;;;;;;;;;;;;;;;;;4984625;28;19917;-62
2022/11/05 13:30:27;;;;;;;;;;;;;;;;;;4983245;28;20458;-63
2022/11/05 13:32:52;;;;;;;;;;;;;;;;;;4983207;28;20626;-61
2022/11/05 13:35:18;;;;;;;;;;;;;;;;;;4984151;28;19918;-61
2022/11/05 13:40:27;;;;;;;;;;;;;;;;;;4983692;28;20031;-62
2022/11/05 13:42:52;;;;;;;;;;;;;;;;;;4981358;28;19918;-61
2022/11/05 13:45:17;;;;;;;;;;;;;;;;;;4982569;28;20012;-61
2022/11/05 13:47:43;;;;;;;;;;;;;;;;;;4979260;28;20355;-61
2022/11/05 13:50:08;;;;;;;;;;;;;;;;;;4980102;28;19918;-62
2022/11/05 13:52:33;;;;;;;;;;;;;;;;;;4983079;28;20017;-61
2022/11/05 13:54:58;;;;;;;;;;;;;;;;;;4983894;28;20434;-61
2022/11/05 13:57:23;;;;;;;;;;;;;;;;;;4984417;28;19997;-61
2022/11/05 13:59:48;;;;;;;;;;;;;;;;;;4983374;28;19943;-61
2022/11/05 14:02:14;;;;;;;;;;;;;;;;;;4984498;28;20294;-62
2022/11/05 14:04:40;;;;;;;;;;;;;;;;;;4980678;28;20502;-62
2022/11/05 14:07:05;;;;;;;;;;;;;;;;;;4980421;28;20373;-61
2022/11/05 14:09:31;;;;;;;;;;;;;;;;;;4981565;28;19918;-61
2022/11/05 14:11:56;;;;;;;;;;;;;;;;;;4979912;28;19940;-61
2022/11/05 14:14:21;;;;;;;;;;;;;;;;;;4979449;28;19918;-62
2022/11/05 14:16:47;;;;;;;;;;;;;;;;;;4982025;28;20330;-61
2022/11/05 14:19:12;;;;;;;;;;;;;;;;;;4980795;28;19965;-62
2022/11/05 14:21:37;;;;;;;;;;;;;;;;;;4983482;28;19917;-61
2022/11/05 14:24:02;;;;;;;;;;;;;;;;;;4982779;28;19925;-61
2022/11/05 14:26:27;;;;;;;;;;;;;;;;;;4982807;28;19987;-61
2022/11/05 14:28:53;;;;;;;;;;;;;;;;;;4981390;28;19918;-61
2022/11/05 14:31:18;;;;;;;;;;;;;;;;;;4979087;28;19928;-61
2022/11/05 14:33:43;;;;;;;;;;;;;;;;;;4981932;28;19922;-61
2022/11/05 14:36:08;;;;;;;;;;;;;;;;;;4979774;28;20331;-61
2022/11/05 14:38:33;;;;;;;;;;;;;;;;;;4980961;28;19926;-62
2022/11/05 14:40:59;;;;;;;;;;;;;;;;;;4984152;28;19952;-61
2022/11/05 14:43:24;;;;;;;;;;;;;;;;;;4981871;28;20491;-61
2022/11/05 14:45:49;;;;;;;;;;;;;;;;;;4983409;28;19918;-61
2022/11/05 14:48:14;;;;;;;;;;;;;;;;;;4989029;28;19917;-62
2022/11/05 14:50:39;;;;;;;;;;;;;;;;;;4982765;28;19928;-62
2022/11/05 14:53:05;;;;;;;;;;;;;;;;;;4979898;28;20367;-62
2022/11/05 14:55:30;;;;;;;;;;;;;;;;;;4983097;28;19921;-62
2022/11/05 14:57:55;;;;;;;;;;;;;;;;;;4983010;28;20000;-63
2022/11/05 15:00:20;;;;;;;;;;;;;;;;;;4981455;28;19925;-62
2022/11/05 15:02:45;;;;;;;;;;;;;;;;;;4981016;28;19956;-61
2022/11/05 15:05:11;;;;;;;;;;;;;;;;;;4980323;28;20314;-62
2022/11/05 15:07:36;;;;;;;;;;;;;;;;;;4980703;28;19926;-60
2022/11/05 15:10:01;;;;;;;;;;;;;;;;;;4979941;28;19917;-62
2022/11/05 15:12:26;;;;;;;;;;;;;;;;;;4981832;28;19926;-62
2022/11/05 15:14:52;;;;;;;;;;;;;;;;;;4993701;28;20016;-62
2022/11/05 15:17:17;;;;;;;;;;;;;;;;;;4979492;28;19926;-62
2022/11/05 15:19:42;;;;;;;;;;;;;;;;;;4978776;28;19953;-61
2022/11/05 15:22:07;;;;;;;;;;;;;;;;;;4980945;28;20294;-62
2022/11/05 15:24:33;;;;;;;;;;;;;;;;;;4992763;28;19948;-60
2022/11/05 15:26:58;;;;;;;;;;;;;;;;;;4992238;28;19924;-61
2022/11/05 15:29:23;;;;;;;;;;;;;;;;;;4980358;28;19918;-61
2022/11/05 15:31:49;;;;;;;;;;;;;;;;;;4982447;28;20453;-62
2022/11/05 15:34:14;;;;;;;;;;;;;;;;;;4979151;28;19976;-62
2022/11/05 15:36:39;;;;;;;;;;;;;;;;;;4978610;28;19972;-62
2022/11/05 15:39:04;;;;;;;;;;;;;;;;;;4978081;28;19918;-61
2022/11/05 15:41:32;;;;;;;;;;;;;;;;;;4979876;28;20330;-61
2022/11/05 15:43:57;;;;;;;;;;;;;;;;;;4980449;28;20546;-62
2022/11/05 15:46:29;;;;;;;;;;;;;;;;;;4979482;28;19918;-62
2022/11/05 15:48:54;;;;;;;;;;;;;;;;;;4981519;28;20163;-62
2022/11/05 15:51:19;;;;;;;;;;;;;;;;;;4979877;28;20294;-62
2022/11/05 15:53:44;;;;;;;;;;;;;;;;;;4982269;28;19949;-62
2022/11/05 15:56:09;;;;;;;;;;;;;;;;;;4981675;28;19917;-61
2022/11/05 15:58:34;;;;;;;;;;;;;;;;;;4981654;28;20366;-62
2022/11/05 16:01:00;;;;;;;;;;;;;;;;;;4981349;28;19997;-62
2022/11/05 16:03:25;;;;;;;;;;;;;;;;;;4980110;28;19925;-61
2022/11/05 16:05:52;;;;;;;;;;;;;;;;;;4979377;28;20362;-61
2022/11/05 16:08:17;;;;;;;;;;;;;;;;;;4981410;28;20667;-62
2022/11/05 16:10:42;;;;;;;;;;;;;;;;;;4979306;28;19929;-61
2022/11/05 16:13:07;;;;;;;;;;;;;;;;;;4979875;28;19917;-61
2022/11/05 16:15:33;;;;;;;;;;;;;;;;;;4981461;28;19957;-62
2022/11/05 16:17:58;;;;;;;;;;;;;;;;;;4983290;28;19914;-63
2022/11/05 16:20:23;;;;;;;;;;;;;;;;;;4984486;28;19922;-62
2022/11/05 16:22:48;;;;;;;;;;;;;;;;;;4985501;28;20761;-63
2022/11/05 16:25:14;;;;;;;;;;;;;;;;;;4975073;28;19941;-63
2022/11/05 16:27:39;;;;;;;;;;;;;;;;;;4986853;28;19948;-63
2022/11/05 16:30:04;;;;;;;;;;;;;;;;;;4988514;28;19918;-62
2022/11/05 16:32:29;;;;;;;;;;;;;;;;;;4985142;28;20041;-62
2022/11/05 16:34:54;;;;;;;;;;;;;;;;;;4983252;28;20012;-63
2022/11/05 16:37:20;;;;;;;;;;;;;;;;;;4984838;28;19917;-61
2022/11/05 16:39:45;;;;;;;;;;;;;;;;;;4987211;28;20579;-61
2022/11/05 16:42:10;;;;;;;;;;;;;;;;;;4983075;28;19920;-61
2022/11/05 16:44:35;;;;;;;;;;;;;;;;;;4982686;28;19925;-62
2022/11/05 16:47:00;;;;;;;;;;;;;;;;;;4981287;28;19917;-62
2022/11/05 16:49:25;;;;;;;;;;;;;;;;;;4980896;28;19918;-62
2022/11/05 16:51:51;;;;;;;;;;;;;;;;;;4976526;28;19933;-61
2022/11/05 16:54:16;;;;;;;;;;;;;;;;;;4971063;28;20687;-61
2022/11/05 16:56:42;;;;;;;;;;;;;;;;;;4983139;28;19925;-61
2022/11/05 16:59:07;;;;;;;;;;;;;;;;;;4977904;28;20346;-61
2022/11/05 17:01:33;;;;;;;;;;;;;;;;;;4970530;28;20576;-61
2022/11/05 17:03:58;;;;;;;;;;;;;;;;;;4984031;28;19946;-61
2022/11/05 17:06:23;;;;;;;;;;;;;;;;;;4978627;28;19917;-61
2022/11/05 17:08:48;;;;;;;;;;;;;;;;;;4980936;28;19961;-61
2022/11/05 17:11:14;;;;;;;;;;;;;;;;;;4975221;28;19926;-61
2022/11/05 17:13:39;;;;;;;;;;;;;;;;;;4973652;28;19918;-61
2022/11/05 17:16:04;;;;;;;;;;;;;;;;;;4980600;28;20008;-61
2022/11/05 17:18:29;;;;;;;;;;;;;;;;;;4975274;28;19918;-61